Time;durP1;ratioP1;P1;durP2;ratioP2;P2;SDS_P1;SDS_P2;PMS_P1;PMS_P2;Temp;Humidity;BMP_temperature;BMP_pressure;BME280_temperature;BME280_humidity;BME280_pressure;Samples;Min_cycle;Max_cycle;Signal;HPM_P1;HPM_P2
2022/03/15 00:02:06;;;;;;;84.45;38.55;;;;;;;;;;5033409;28;20041;-60
2022/03/15 00:04:37;;;;;;;60.55;30.42;;;;;;;;;;5033262;28;20037;-59
2022/03/15 00:07:02;;;;;;;59.55;28.88;;;;;;;;;;5033419;28;20136;-64
2022/03/15 00:09:28;;;;;;;63.90;31.08;;;;;;;;;;5033231;28;20109;-64
2022/03/15 00:11:54;;;;;;;62.03;31.25;;;;;;;;;;5033374;28;20061;-64
2022/03/15 00:14:20;;;;;;;61.42;31.02;;;;;;;;;;5033217;28;20018;-64
2022/03/15 00:16:45;;;;;;;71.38;32.53;;;;;;;;;;5033069;28;20029;-64
2022/03/15 00:19:11;;;;;;;62.83;31.30;;;;;;;;;;5033085;28;20021;-64
2022/03/15 00:21:38;;;;;;;62.42;29.10;;;;;;;;;;5033068;28;20029;-63
2022/03/15 00:24:04;;;;;;;48.17;26.00;;;;;;;;;;5033108;28;20029;-64
2022/03/15 00:26:30;;;;;;;56.97;29.48;;;;;;;;;;5032818;28;20054;-64
2022/03/15 00:28:55;;;;;;;57.58;29.00;;;;;;;;;;5032833;28;20044;-64
2022/03/15 00:31:21;;;;;;;53.80;27.05;;;;;;;;;;5031173;28;20037;-64
2022/03/15 00:33:46;;;;;;;49.78;23.42;;;;;;;;;;5033197;28;20022;-64
2022/03/15 00:36:13;;;;;;;46.95;26.02;;;;;;;;;;5031632;28;20464;-64
2022/03/15 00:38:41;;;;;;;55.67;29.45;;;;;;;;;;5032743;28;20010;-64
2022/03/15 00:41:09;;;;;;;52.58;27.00;;;;;;;;;;5033091;28;20026;-64
2022/03/15 00:43:34;;;;;;;51.05;26.33;;;;;;;;;;5031478;28;20040;-64
2022/03/15 00:46:00;;;;;;;49.85;27.08;;;;;;;;;;5032962;28;20448;-64
2022/03/15 00:48:26;;;;;;;49.88;26.17;;;;;;;;;;5031644;28;20113;-64
2022/03/15 00:50:52;;;;;;;53.10;27.23;;;;;;;;;;5034575;28;20369;-65
2022/03/15 00:53:18;;;;;;;46.40;25.67;;;;;;;;;;5036355;28;20097;-64
2022/03/15 00:55:44;;;;;;;51.58;27.08;;;;;;;;;;5035044;28;20063;-64
2022/03/15 00:58:11;;;;;;;47.35;26.77;;;;;;;;;;5036464;28;20478;-64
2022/03/15 01:00:38;;;;;;;49.35;26.75;;;;;;;;;;5035236;28;20033;-64
2022/03/15 01:03:06;;;;;;;50.30;26.50;;;;;;;;;;5035240;28;20087;-64
2022/03/15 01:05:32;;;;;;;49.42;24.95;;;;;;;;;;5035115;28;20467;-64
2022/03/15 01:07:57;;;;;;;50.15;25.95;;;;;;;;;;5034867;28;20026;-64
2022/03/15 01:10:23;;;;;;;49.67;26.55;;;;;;;;;;5035967;28;20041;-64
2022/03/15 01:12:48;;;;;;;57.53;29.20;;;;;;;;;;5035992;28;20021;-64
2022/03/15 01:15:14;;;;;;;54.40;28.63;;;;;;;;;;5036120;28;20021;-65
2022/03/15 01:17:39;;;;;;;56.38;28.20;;;;;;;;;;5034954;28;20013;-64
2022/03/15 01:20:07;;;;;;;55.80;28.83;;;;;;;;;;5035985;28;20040;-64
2022/03/15 01:22:35;;;;;;;51.15;26.35;;;;;;;;;;5034627;28;20027;-64
2022/03/15 01:25:03;;;;;;;49.03;26.58;;;;;;;;;;5034220;28;20038;-64
2022/03/15 01:27:29;;;;;;;51.67;27.95;;;;;;;;;;5035604;28;20084;-64
2022/03/15 01:29:57;;;;;;;56.05;27.77;;;;;;;;;;5034699;28;20095;-64
2022/03/15 01:32:23;;;;;;;55.33;28.85;;;;;;;;;;5034666;28;20049;-64
2022/03/15 01:34:48;;;;;;;54.25;28.65;;;;;;;;;;5018177;28;20495;-63
2022/03/15 01:37:14;;;;;;;55.85;28.92;;;;;;;;;;5035426;28;20067;-64
2022/03/15 01:39:39;;;;;;;50.95;28.48;;;;;;;;;;5034390;28;20135;-64
2022/03/15 01:42:05;;;;;;;53.15;28.25;;;;;;;;;;5034214;28;20021;-64
2022/03/15 01:44:33;;;;;;;53.00;29.25;;;;;;;;;;5035446;28;20483;-64
2022/03/15 01:46:59;;;;;;;56.85;29.05;;;;;;;;;;5034110;28;20025;-64
2022/03/15 01:49:24;;;;;;;63.40;29.17;;;;;;;;;;5034190;28;20037;-63
2022/03/15 01:51:50;;;;;;;54.58;29.60;;;;;;;;;;5035430;28;20025;-64
2022/03/15 01:54:16;;;;;;;64.93;32.90;;;;;;;;;;5035291;28;20021;-60
2022/03/15 01:56:42;;;;;;;65.63;32.95;;;;;;;;;;5035147;28;20024;-60
2022/03/15 01:59:14;;;;;;;60.05;32.72;;;;;;;;;;5034138;28;20052;-60
2022/03/15 02:01:41;;;;;;;64.50;31.63;;;;;;;;;;5033400;28;20030;-59
2022/03/15 02:04:07;;;;;;;57.42;29.98;;;;;;;;;;5035017;28;20022;-60
2022/03/15 02:06:39;;;;;;;53.97;28.17;;;;;;;;;;5035029;28;20041;-60
2022/03/15 02:09:11;;;;;;;53.47;28.52;;;;;;;;;;5035102;28;20037;-60
2022/03/15 02:11:37;;;;;;;56.35;28.70;;;;;;;;;;5034917;28;20044;-60
2022/03/15 02:14:03;;;;;;;54.28;29.50;;;;;;;;;;5034886;28;20029;-59
2022/03/15 02:16:29;;;;;;;58.50;30.08;;;;;;;;;;5034985;28;20025;-60
2022/03/15 02:18:58;;;;;;;59.25;31.63;;;;;;;;;;5034287;28;20040;-60
2022/03/15 02:21:25;;;;;;;58.40;29.58;;;;;;;;;;5034975;28;20041;-60
2022/03/15 02:23:50;;;;;;;66.20;31.45;;;;;;;;;;5034672;28;20028;-59
2022/03/15 02:26:16;;;;;;;62.40;32.20;;;;;;;;;;5034611;28;20049;-59
2022/03/15 02:28:42;;;;;;;66.97;32.88;;;;;;;;;;5034870;28;20034;-59
2022/03/15 02:31:07;;;;;;;71.72;34.33;;;;;;;;;;5034557;28;20072;-59
2022/03/15 02:33:33;;;;;;;68.60;34.22;;;;;;;;;;5033258;28;20501;-59
2022/03/15 02:35:58;;;;;;;77.15;34.28;;;;;;;;;;5034623;28;20049;-59
2022/03/15 02:38:24;;;;;;;76.68;35.92;;;;;;;;;;5034468;28;20025;-60
2022/03/15 02:40:49;;;;;;;82.32;37.42;;;;;;;;;;5034681;28;20037;-60
2022/03/15 02:43:15;;;;;;;84.05;37.70;;;;;;;;;;5034441;28;20022;-59
2022/03/15 02:45:41;;;;;;;58.53;30.17;;;;;;;;;;5034386;28;20033;-60
2022/03/15 02:48:06;;;;;;;54.90;27.90;;;;;;;;;;5034290;28;20088;-60
2022/03/15 02:50:32;;;;;;;56.97;29.20;;;;;;;;;;5033939;28;20026;-60
2022/03/15 02:52:58;;;;;;;64.10;31.27;;;;;;;;;;5034173;28;20014;-60
2022/03/15 02:55:25;;;;;;;69.72;34.83;;;;;;;;;;5034153;28;20545;-59
2022/03/15 02:57:52;;;;;;;76.60;35.22;;;;;;;;;;5034093;28;20025;-59
2022/03/15 03:00:18;;;;;;;72.47;34.50;;;;;;;;;;5034004;28;20084;-59
2022/03/15 03:02:43;;;;;;;65.65;32.15;;;;;;;;;;5033863;28;20068;-59
2022/03/15 03:05:09;;;;;;;68.80;32.70;;;;;;;;;;5033861;28;20033;-59
2022/03/15 03:07:35;;;;;;;64.25;30.80;;;;;;;;;;5033949;28;20013;-60
2022/03/15 03:10:01;;;;;;;65.85;32.53;;;;;;;;;;5033798;28;20029;-59
2022/03/15 03:12:28;;;;;;;79.30;36.88;;;;;;;;;;5033685;28;20448;-59
2022/03/15 03:14:55;;;;;;;83.68;39.15;;;;;;;;;;5032594;28;20033;-59
2022/03/15 03:17:23;;;;;;;102.15;43.47;;;;;;;;;;5033941;28;20453;-59
2022/03/15 03:19:48;;;;;;;75.72;34.90;;;;;;;;;;5033754;28;20057;-59
2022/03/15 03:22:14;;;;;;;68.53;31.05;;;;;;;;;;5033846;28;20067;-59
2022/03/15 03:24:39;;;;;;;66.85;30.20;;;;;;;;;;5032062;28;20052;-60
2022/03/15 03:27:05;;;;;;;64.45;30.27;;;;;;;;;;5034039;28;20423;-60
2022/03/15 03:29:32;;;;;;;59.95;29.25;;;;;;;;;;5033762;28;20033;-59
2022/03/15 03:31:57;;;;;;;67.93;32.03;;;;;;;;;;5033458;28;20021;-59
2022/03/15 03:34:25;;;;;;;73.47;32.58;;;;;;;;;;5033620;28;20036;-59
2022/03/15 03:36:50;;;;;;;71.00;33.75;;;;;;;;;;5032419;28;20574;-60
2022/03/15 03:39:16;;;;;;;71.28;33.03;;;;;;;;;;5033659;28;20120;-59
2022/03/15 03:41:41;;;;;;;66.97;32.72;;;;;;;;;;5033686;28;20064;-59
2022/03/15 03:44:07;;;;;;;64.40;30.45;;;;;;;;;;5033574;28;20025;-60
2022/03/15 03:46:35;;;;;;;70.65;32.50;;;;;;;;;;5032471;28;20057;-59
2022/03/15 03:49:00;;;;;;;65.20;30.80;;;;;;;;;;5033365;28;20029;-59
2022/03/15 03:51:25;;;;;;;68.55;31.42;;;;;;;;;;5033535;28;20022;-59
2022/03/15 03:53:51;;;;;;;72.00;33.08;;;;;;;;;;5033276;28;20044;-59
2022/03/15 03:56:17;;;;;;;75.97;33.80;;;;;;;;;;5033519;28;20021;-59
2022/03/15 03:58:42;;;;;;;76.72;32.63;;;;;;;;;;5033251;28;20091;-59
2022/03/15 04:01:07;;;;;;;102.88;40.08;;;;;;;;;;5033288;28;20382;-59
2022/03/15 04:03:33;;;;;;;84.18;36.05;;;;;;;;;;5033192;28;20040;-59
2022/03/15 04:06:07;;;;;;;81.93;35.90;;;;;;;;;;5032061;28;20025;-59
2022/03/15 04:08:32;;;;;;;61.65;30.20;;;;;;;;;;5033098;28;20037;-60
2022/03/15 04:10:58;;;;;;;64.15;29.17;;;;;;;;;;5033103;28;20033;-60
2022/03/15 04:13:26;;;;;;;70.25;32.78;;;;;;;;;;5031772;28;20387;-60
2022/03/15 04:15:57;;;;;;;76.43;33.83;;;;;;;;;;5041587;28;20082;-60
2022/03/15 04:18:23;;;;;;;78.13;34.45;;;;;;;;;;5041472;28;20025;-60
2022/03/15 04:20:50;;;;;;;67.07;30.67;;;;;;;;;;5038779;28;20154;-60
2022/03/15 04:23:34;;;;;;;66.57;29.98;;;;;;;;;;5039189;28;20033;-61
2022/03/15 04:26:00;;;;;;;59.97;29.65;;;;;;;;;;5034987;28;20243;-60
2022/03/15 04:28:26;;;;;;;108.18;43.95;;;;;;;;;;5036901;28;20112;-60
2022/03/15 04:30:54;;;;;;;83.85;36.33;;;;;;;;;;5035390;28;20076;-60
2022/03/15 04:33:19;;;;;;;102.35;41.85;;;;;;;;;;5035662;28;20032;-60
2022/03/15 04:35:45;;;;;;;154.02;55.60;;;;;;;;;;5036891;28;20060;-60
2022/03/15 04:38:10;;;;;;;80.45;34.35;;;;;;;;;;5036448;28;20418;-59
2022/03/15 04:40:36;;;;;;;74.60;34.78;;;;;;;;;;5036663;28;20033;-60
2022/03/15 04:43:01;;;;;;;65.80;29.63;;;;;;;;;;5035497;28;20021;-59
2022/03/15 04:45:28;;;;;;;51.47;26.10;;;;;;;;;;5036207;28;20037;-62
2022/03/15 04:47:54;;;;;;;56.80;28.05;;;;;;;;;;5045939;28;20037;-60
2022/03/15 04:50:21;;;;;;;48.50;25.52;;;;;;;;;;5041952;28;20036;-59
2022/03/15 04:52:46;;;;;;;48.58;25.50;;;;;;;;;;5036541;28;20017;-59
2022/03/15 04:55:12;;;;;;;51.28;25.48;;;;;;;;;;5036493;28;20087;-59
2022/03/15 04:57:37;;;;;;;50.58;25.75;;;;;;;;;;5041371;28;20013;-59
2022/03/15 05:00:04;;;;;;;55.20;26.20;;;;;;;;;;5036536;28;20026;-59
2022/03/15 05:02:30;;;;;;;57.80;26.60;;;;;;;;;;5036216;28;20021;-59
2022/03/15 05:04:56;;;;;;;54.03;26.38;;;;;;;;;;5038302;28;20061;-60
2022/03/15 05:07:22;;;;;;;46.22;25.33;;;;;;;;;;5048720;28;20479;-64
2022/03/15 05:12:34;;;;;;;38.88;22.27;;;;;;;;;;5056058;28;20448;-59
2022/03/15 05:14:59;;;;;;;41.03;20.50;;;;;;;;;;5055918;28;20044;-59
2022/03/15 05:17:26;;;;;;;45.22;23.20;;;;;;;;;;5055913;28;20128;-60
2022/03/15 05:19:52;;;;;;;43.97;23.83;;;;;;;;;;5056139;28;20021;-60
2022/03/15 05:22:21;;;;;;;45.65;24.17;;;;;;;;;;5055286;28;20056;-60
2022/03/15 05:24:46;;;;;;;49.90;24.30;;;;;;;;;;5054878;28;20100;-60
2022/03/15 05:27:12;;;;;;;61.08;28.08;;;;;;;;;;5054541;28;20390;-59
2022/03/15 05:29:38;;;;;;;66.00;30.13;;;;;;;;;;5054418;28;20021;-60
2022/03/15 05:35:38;;;;;;;48.80;27.65;;;;;;;;;;5056127;28;20528;-59
2022/03/15 05:38:05;;;;;;;67.88;36.58;;;;;;;;;;5053515;28;20024;-60
2022/03/15 05:40:30;;;;;;;75.68;36.92;;;;;;;;;;5037348;28;20045;-59
2022/03/15 05:42:56;;;;;;;60.95;33.70;;;;;;;;;;5055026;28;20450;-60
2022/03/15 05:45:22;;;;;;;59.35;30.75;;;;;;;;;;5055019;28;20029;-59
2022/03/15 05:47:48;;;;;;;53.92;28.83;;;;;;;;;;5055065;28;20037;-59
2022/03/15 05:50:14;;;;;;;54.65;28.30;;;;;;;;;;5055190;28;20028;-59
2022/03/15 05:52:39;;;;;;;58.47;29.80;;;;;;;;;;5053657;28;20033;-59
2022/03/15 05:55:05;;;;;;;57.83;31.10;;;;;;;;;;5054936;28;20017;-59
2022/03/15 05:57:30;;;;;;;62.75;32.00;;;;;;;;;;5054962;28;20487;-59
2022/03/15 05:59:55;;;;;;;60.15;32.25;;;;;;;;;;5054504;28;20024;-60
2022/03/15 06:02:21;;;;;;;66.68;34.92;;;;;;;;;;5055050;28;20112;-59
2022/03/15 06:04:47;;;;;;;68.35;34.42;;;;;;;;;;5054692;28;20467;-59
2022/03/15 06:07:12;;;;;;;68.32;33.80;;;;;;;;;;5054619;28;20033;-59
2022/03/15 06:09:38;;;;;;;69.85;38.35;;;;;;;;;;5054596;28;20017;-59
2022/03/15 06:12:04;;;;;;;102.38;50.50;;;;;;;;;;5054740;28;20104;-59
2022/03/15 06:14:29;;;;;;;96.88;48.03;;;;;;;;;;5053329;28;20352;-59
2022/03/15 06:16:54;;;;;;;108.82;55.42;;;;;;;;;;5054486;28;20029;-60
2022/03/15 06:19:20;;;;;;;119.57;60.75;;;;;;;;;;5054550;28;20443;-59
2022/03/15 06:21:45;;;;;;;116.18;57.97;;;;;;;;;;5054319;28;20036;-59
2022/03/15 06:24:11;;;;;;;120.57;59.35;;;;;;;;;;5054274;28;20104;-59
2022/03/15 06:26:38;;;;;;;108.93;56.90;;;;;;;;;;5033064;28;20076;-59
2022/03/15 06:29:04;;;;;;;110.35;57.95;;;;;;;;;;5053089;28;20112;-59
2022/03/15 06:31:30;;;;;;;109.38;53.15;;;;;;;;;;5054100;28;20032;-59
2022/03/15 06:33:55;;;;;;;107.55;51.75;;;;;;;;;;5054048;28;20109;-59
2022/03/15 06:36:21;;;;;;;104.93;48.75;;;;;;;;;;5054100;28;20106;-59
2022/03/15 06:38:46;;;;;;;88.88;41.08;;;;;;;;;;5053929;28;20021;-59
2022/03/15 06:41:12;;;;;;;79.57;40.03;;;;;;;;;;5054062;28;20032;-59
2022/03/15 06:43:39;;;;;;;55.00;28.85;;;;;;;;;;5053925;28;20017;-59
2022/03/15 06:46:05;;;;;;;52.47;25.67;;;;;;;;;;5053810;28;20025;-59
2022/03/15 06:48:30;;;;;;;44.63;23.13;;;;;;;;;;5053834;28;20032;-59
2022/03/15 06:50:56;;;;;;;44.35;23.38;;;;;;;;;;5053804;28;20048;-59
2022/03/15 06:53:21;;;;;;;42.80;25.40;;;;;;;;;;5053895;28;20100;-59
2022/03/15 06:55:47;;;;;;;43.22;23.08;;;;;;;;;;5053505;28;20124;-61
2022/03/15 06:58:12;;;;;;;45.05;21.92;;;;;;;;;;5053945;28;20017;-59
2022/03/15 07:00:40;;;;;;;36.58;21.38;;;;;;;;;;5053826;28;20059;-59
2022/03/15 07:03:05;;;;;;;41.55;23.48;;;;;;;;;;5053706;28;20040;-59
2022/03/15 07:05:31;;;;;;;49.72;25.98;;;;;;;;;;5053568;28;20383;-59
2022/03/15 07:07:57;;;;;;;48.53;25.60;;;;;;;;;;5052368;28;20117;-59
2022/03/15 07:10:22;;;;;;;46.25;24.55;;;;;;;;;;5053516;28;20041;-60
2022/03/15 07:12:48;;;;;;;72.15;35.28;;;;;;;;;;5053429;28;20092;-59
2022/03/15 07:15:14;;;;;;;38.33;22.20;;;;;;;;;;5053428;28;20029;-59
2022/03/15 07:17:48;;;;;;;31.73;18.33;;;;;;;;;;5053425;28;20045;-59
2022/03/15 07:20:14;;;;;;;41.25;20.63;;;;;;;;;;5052111;28;20468;-60
2022/03/15 07:22:39;;;;;;;31.77;17.88;;;;;;;;;;5053231;28;20024;-59
2022/03/15 07:25:05;;;;;;;35.72;18.58;;;;;;;;;;5051397;28;20045;-59
2022/03/15 07:27:30;;;;;;;35.42;17.73;;;;;;;;;;5053527;28;20030;-59
2022/03/15 07:29:56;;;;;;;40.78;21.70;;;;;;;;;;5053251;28;20044;-59
2022/03/15 07:32:21;;;;;;;46.05;23.77;;;;;;;;;;5053275;28;20021;-59
2022/03/15 07:34:49;;;;;;;46.00;22.92;;;;;;;;;;5052040;28;20078;-59
2022/03/15 07:37:15;;;;;;;42.22;23.17;;;;;;;;;;5053068;28;20104;-59
2022/03/15 07:39:40;;;;;;;33.78;18.95;;;;;;;;;;5052974;28;20107;-59
2022/03/15 07:42:05;;;;;;;47.70;23.75;;;;;;;;;;5053060;28;20539;-60
2022/03/15 07:44:33;;;;;;;43.30;22.45;;;;;;;;;;5053134;28;20021;-59
2022/03/15 07:46:58;;;;;;;42.53;21.02;;;;;;;;;;5053100;28;20375;-59
2022/03/15 07:49:23;;;;;;;37.83;19.85;;;;;;;;;;5052921;28;20029;-60
2022/03/15 07:51:49;;;;;;;34.28;17.75;;;;;;;;;;5051264;28;20025;-60
2022/03/15 07:54:15;;;;;;;27.40;16.55;;;;;;;;;;5053049;28;20025;-59
2022/03/15 07:56:41;;;;;;;29.30;15.73;;;;;;;;;;5052870;28;20045;-59
2022/03/15 07:59:07;;;;;;;33.92;18.00;;;;;;;;;;5052905;28;20063;-59
2022/03/15 08:01:32;;;;;;;36.05;20.00;;;;;;;;;;5056332;28;20052;-59
2022/03/15 08:03:57;;;;;;;35.92;20.58;;;;;;;;;;5057099;28;20382;-59
2022/03/15 08:06:23;;;;;;;30.27;15.77;;;;;;;;;;5055836;28;20178;-59
2022/03/15 08:08:49;;;;;;;24.95;14.40;;;;;;;;;;5056978;28;20522;-59
2022/03/15 08:11:14;;;;;;;27.25;15.50;;;;;;;;;;5055631;28;20029;-59
2022/03/15 08:13:40;;;;;;;24.95;13.25;;;;;;;;;;5055624;28;20467;-59
2022/03/15 08:16:05;;;;;;;31.25;17.88;;;;;;;;;;5056718;28;20032;-59
2022/03/15 08:18:31;;;;;;;29.92;17.75;;;;;;;;;;5056831;28;20036;-59
2022/03/15 08:20:59;;;;;;;31.85;17.65;;;;;;;;;;5056613;28;20151;-59
2022/03/15 08:23:26;;;;;;;24.02;12.15;;;;;;;;;;5055404;28;20395;-59
2022/03/15 08:25:54;;;;;;;30.60;14.05;;;;;;;;;;5056401;28;20504;-59
2022/03/15 08:28:20;;;;;;;26.98;15.63;;;;;;;;;;5056609;28;20041;-59
2022/03/15 08:30:45;;;;;;;33.05;17.75;;;;;;;;;;5056467;28;20027;-59
2022/03/15 08:33:11;;;;;;;32.30;17.38;;;;;;;;;;5055264;28;20067;-59
2022/03/15 08:35:36;;;;;;;25.95;16.15;;;;;;;;;;5056495;28;20386;-60
2022/03/15 08:38:02;;;;;;;30.20;16.00;;;;;;;;;;5056353;28;20106;-59
2022/03/15 08:40:27;;;;;;;102.80;37.63;;;;;;;;;;5055030;28;20493;-59
2022/03/15 08:43:01;;;;;;;37.80;18.63;;;;;;;;;;5056242;28;20478;-60
2022/03/15 08:45:26;;;;;;;25.13;15.13;;;;;;;;;;5055001;28;20044;-60
2022/03/15 08:47:52;;;;;;;22.10;12.90;;;;;;;;;;5056045;28;20056;-59
2022/03/15 08:50:19;;;;;;;20.70;12.00;;;;;;;;;;5056018;28;20548;-59
2022/03/15 08:52:44;;;;;;;19.02;12.65;;;;;;;;;;5056082;28;20386;-59
2022/03/15 08:55:10;;;;;;;17.45;11.63;;;;;;;;;;5056172;28;20017;-59
2022/03/15 08:57:35;;;;;;;17.60;10.82;;;;;;;;;;5056124;28;20009;-59
2022/03/15 09:00:02;;;;;;;15.85;10.00;;;;;;;;;;5055951;28;20036;-59
2022/03/15 09:02:28;;;;;;;17.45;9.60;;;;;;;;;;5056007;28;20164;-59
2022/03/15 09:04:53;;;;;;;12.18;8.80;;;;;;;;;;5055983;28;20526;-59
2022/03/15 09:07:19;;;;;;;13.15;9.15;;;;;;;;;;5054748;28;20028;-59
2022/03/15 09:09:44;;;;;;;12.73;7.97;;;;;;;;;;5055766;28;20513;-59
2022/03/15 09:12:09;;;;;;;11.85;7.60;;;;;;;;;;5054626;28;20106;-59
2022/03/15 09:14:35;;;;;;;11.25;7.20;;;;;;;;;;5055667;28;20029;-60
2022/03/15 09:17:01;;;;;;;10.40;7.82;;;;;;;;;;5055687;28;20017;-59
2022/03/15 09:19:27;;;;;;;12.32;7.60;;;;;;;;;;5055621;28;20121;-59
2022/03/15 09:21:52;;;;;;;9.63;7.18;;;;;;;;;;5055588;28;20356;-59
2022/03/15 09:24:19;;;;;;;10.20;7.25;;;;;;;;;;5055281;28;20062;-59
2022/03/15 09:26:45;;;;;;;10.05;6.88;;;;;;;;;;5055444;28;20463;-59
2022/03/15 09:29:10;;;;;;;12.48;7.93;;;;;;;;;;5054299;28;20048;-59
2022/03/15 09:31:36;;;;;;;12.90;7.97;;;;;;;;;;5055329;28;20371;-60
2022/03/15 09:34:02;;;;;;;12.25;7.22;;;;;;;;;;5055232;28;20021;-59
2022/03/15 09:36:27;;;;;;;10.40;6.70;;;;;;;;;;5055275;28;20047;-59
2022/03/15 09:38:54;;;;;;;10.95;6.70;;;;;;;;;;5055194;28;20104;-59
2022/03/15 09:41:20;;;;;;;12.30;7.95;;;;;;;;;;5053809;28;20459;-59
2022/03/15 09:43:46;;;;;;;10.75;7.13;;;;;;;;;;5055140;28;20028;-59
2022/03/15 09:46:16;;;;;;;12.45;7.57;;;;;;;;;;5053952;28;20056;-59
2022/03/15 09:48:43;;;;;;;10.48;6.60;;;;;;;;;;5055219;28;20037;-59
2022/03/15 09:51:11;;;;;;;8.68;7.00;;;;;;;;;;5055041;28;20024;-60
2022/03/15 09:53:39;;;;;;;20.35;10.82;;;;;;;;;;5053754;28;20033;-59
2022/03/15 09:56:04;;;;;;;12.55;9.00;;;;;;;;;;5054871;28;20024;-59
2022/03/15 09:58:30;;;;;;;12.25;7.97;;;;;;;;;;5054761;28;20096;-59
2022/03/15 10:00:55;;;;;;;15.02;8.63;;;;;;;;;;5054744;28;20475;-59
2022/03/15 10:03:21;;;;;;;11.30;8.13;;;;;;;;;;5054743;28;20029;-59
2022/03/15 10:05:49;;;;;;;16.27;9.35;;;;;;;;;;5054721;28;20028;-59
2022/03/15 10:08:15;;;;;;;14.30;7.88;;;;;;;;;;5054675;28;20398;-59
2022/03/15 10:10:41;;;;;;;14.20;9.48;;;;;;;;;;5053348;28;20017;-59
2022/03/15 10:13:07;;;;;;;14.60;8.02;;;;;;;;;;5054524;28;20108;-59
2022/03/15 10:15:33;;;;;;;12.18;8.57;;;;;;;;;;5054610;28;20067;-59
2022/03/15 10:18:04;;;;;;;11.68;7.32;;;;;;;;;;5054483;28;20080;-59
2022/03/15 10:20:31;;;;;;;;;;;;;;;;;;5054850;28;20021;-59
2022/03/15 10:23:00;;;;;;;16.23;10.00;;;;;;;;;;5054114;28;19948;-59
2022/03/15 10:25:29;;;;;;;13.40;7.97;;;;;;;;;;5053959;28;20051;-59
2022/03/15 10:28:02;;;;;;;10.52;7.07;;;;;;;;;;5054306;28;20033;-59
2022/03/15 10:30:28;;;;;;;10.93;7.28;;;;;;;;;;5053086;28;20028;-59
2022/03/15 10:32:54;;;;;;;10.80;8.15;;;;;;;;;;5054224;28;20455;-59
2022/03/15 10:35:24;;;;;;;16.02;11.00;;;;;;;;;;5053731;28;20079;-60
2022/03/15 10:37:50;;;;;;;;;;;;;;;;;;5054526;28;20071;-59
2022/03/15 10:40:16;;;;;;;11.98;7.95;;;;;;;;;;5054125;28;19905;-59
2022/03/15 10:42:43;;;;;;;11.18;7.25;;;;;;;;;;5054078;28;20033;-59
2022/03/15 10:45:15;;;;;;;10.32;6.88;;;;;;;;;;5053970;28;20104;-59
2022/03/15 10:47:48;;;;;;;10.73;7.95;;;;;;;;;;5053997;28;20512;-59
2022/03/15 10:50:16;;;;;;;14.07;7.53;;;;;;;;;;5053813;28;20044;-59
2022/03/15 10:52:45;;;;;;;11.05;7.93;;;;;;;;;;5053876;28;20009;-59
2022/03/15 10:55:10;;;;;;;10.13;6.63;;;;;;;;;;5053860;28;20083;-59
2022/03/15 10:57:56;;;;;;;14.50;9.23;;;;;;;;;;5053870;28;20064;-59
2022/03/15 11:00:28;;;;;;;14.80;9.73;;;;;;;;;;5053720;28;20048;-59
2022/03/15 11:02:55;;;;;;;10.73;6.85;;;;;;;;;;5052565;28;20048;-59
2022/03/15 11:05:25;;;;;;;10.70;7.38;;;;;;;;;;5053695;28;20021;-59
2022/03/15 11:07:50;;;;;;;13.15;8.68;;;;;;;;;;5053654;28;20056;-59
2022/03/15 11:10:15;;;;;;;15.02;9.70;;;;;;;;;;5053455;28;20106;-59
2022/03/15 11:13:02;;;;;;;17.40;10.07;;;;;;;;;;5053574;28;20084;-59
2022/03/15 11:15:30;;;;;;;12.15;8.10;;;;;;;;;;5053558;28;20028;-59
2022/03/15 11:18:05;;;;;;;17.48;9.23;;;;;;;;;;5052365;28;20016;-59
2022/03/15 11:20:38;;;;;;;12.18;6.97;;;;;;;;;;5053361;28;20029;-59
2022/03/15 11:23:05;;;;;;;12.65;8.02;;;;;;;;;;5053283;28;20048;-59
2022/03/15 11:25:35;;;;;;;13.85;9.18;;;;;;;;;;5052874;28;20048;-59
2022/03/15 11:28:01;;;;;;;;;;;;;;;;;;5053424;28;20043;-59
2022/03/15 11:30:27;;;;;;;13.93;7.07;;;;;;;;;;5053482;28;20297;-59
2022/03/15 11:32:54;;;;;;;17.35;11.55;;;;;;;;;;5053295;28;20033;-60
2022/03/15 11:35:22;;;;;;;11.50;8.13;;;;;;;;;;5051404;28;20024;-59
2022/03/15 11:37:48;;;;;;;9.75;6.35;;;;;;;;;;5053172;28;20036;-59
2022/03/15 11:40:14;;;;;;;11.13;6.93;;;;;;;;;;5053162;28;20033;-59
2022/03/15 11:42:42;;;;;;;10.07;7.25;;;;;;;;;;5053110;28;20426;-59
2022/03/15 11:45:07;;;;;;;12.40;7.70;;;;;;;;;;5053100;28;20056;-59
2022/03/15 11:47:52;;;;;;;12.38;9.75;;;;;;;;;;5053100;28;20060;-59
2022/03/15 11:50:30;;;;;;;11.98;8.95;;;;;;;;;;5052914;28;20040;-60
2022/03/15 11:53:01;;;;;;;10.07;6.32;;;;;;;;;;5053207;28;20501;-59
2022/03/15 11:55:28;;;;;;;;;;;;;;;;;;5052192;28;20036;-59
2022/03/15 11:57:59;;;;;;;13.68;8.80;;;;;;;;;;5052934;28;20335;-59
2022/03/15 12:00:29;;;;;;;7.07;4.55;;;;;;;;;;5052873;28;20032;-60
2022/03/15 12:02:56;;;;;;;7.63;5.82;;;;;;;;;;5052837;28;20052;-59
2022/03/15 12:05:22;;;;;;;9.35;6.45;;;;;;;;;;5052970;28;20029;-59
2022/03/15 12:08:12;;;;;;;10.98;7.43;;;;;;;;;;5052903;28;20086;-59
2022/03/15 12:10:38;;;;;;;;;;;;;;;;;;5053184;28;20043;-59
2022/03/15 12:13:07;;;;;;;7.93;5.85;;;;;;;;;;5052703;28;20003;-60
2022/03/15 12:15:38;;;;;;;13.45;9.75;;;;;;;;;;5052799;28;20025;-59
2022/03/15 12:18:23;;;;;;;12.60;9.07;;;;;;;;;;5052702;28;20029;-59
2022/03/15 12:20:59;;;;;;;10.85;6.07;;;;;;;;;;5052807;28;20090;-59
2022/03/15 12:23:28;;;;;;;9.57;6.57;;;;;;;;;;5052632;28;20036;-60
2022/03/15 12:25:54;;;;;;;7.93;5.97;;;;;;;;;;5052301;28;20059;-60
2022/03/15 12:28:26;;;;;;;6.85;5.15;;;;;;;;;;5052601;28;20459;-60
2022/03/15 12:30:53;;;;;;;7.97;6.07;;;;;;;;;;5052585;28;20025;-60
2022/03/15 12:33:26;;;;;;;7.25;5.47;;;;;;;;;;5052589;28;20013;-60
2022/03/15 12:35:57;;;;;;;6.20;4.75;;;;;;;;;;5051464;28;20025;-60
2022/03/15 12:38:31;;;;;;;8.23;5.38;;;;;;;;;;5051397;28;20033;-60
2022/03/15 12:40:56;;;;;;;6.43;5.30;;;;;;;;;;5052579;28;20050;-60
2022/03/15 12:43:22;;;;;;;7.47;5.88;;;;;;;;;;5052452;28;20111;-59
2022/03/15 12:45:48;;;;;;;6.90;5.10;;;;;;;;;;5052993;28;20120;-59
2022/03/15 12:48:16;;;;;;;8.23;5.35;;;;;;;;;;5055089;28;20118;-59
2022/03/15 12:50:41;;;;;;;8.75;6.32;;;;;;;;;;5056202;28;20072;-60
2022/03/15 12:53:12;;;;;;;9.00;5.80;;;;;;;;;;5056230;28;20090;-60
2022/03/15 12:55:41;;;;;;;7.72;5.90;;;;;;;;;;5056068;28;20025;-60
2022/03/15 12:58:09;;;;;;;8.38;6.35;;;;;;;;;;5056049;28;20382;-60
2022/03/15 13:00:37;;;;;;;8.85;6.35;;;;;;;;;;5056094;28;20039;-60
2022/03/15 13:03:03;;;;;;;8.18;6.40;;;;;;;;;;5056133;28;20025;-60
2022/03/15 13:05:29;;;;;;;5.15;4.10;;;;;;;;;;5054786;28;20090;-60
2022/03/15 13:07:59;;;;;;;9.38;7.22;;;;;;;;;;5055955;28;20021;-59
2022/03/15 13:10:43;;;;;;;12.60;6.80;;;;;;;;;;5055799;28;20095;-60
2022/03/15 13:13:18;;;;;;;11.57;5.65;;;;;;;;;;5055827;28;20028;-59
2022/03/15 13:15:48;;;;;;;9.95;5.55;;;;;;;;;;5055576;28;20387;-60
2022/03/15 13:18:16;;;;;;;11.80;7.23;;;;;;;;;;5054681;28;20029;-60
2022/03/15 13:20:42;;;;;;;13.38;8.00;;;;;;;;;;5055535;28;20036;-59
2022/03/15 13:23:08;;;;;;;10.80;6.90;;;;;;;;;;5055530;28;20017;-59
2022/03/15 13:25:44;;;;;;;10.38;6.72;;;;;;;;;;5053975;28;20106;-59
2022/03/15 13:28:24;;;;;;;13.55;8.55;;;;;;;;;;5055573;28;20033;-60
2022/03/15 13:30:57;;;;;;;10.20;6.70;;;;;;;;;;5054207;28;20032;-59
2022/03/15 13:33:32;;;;;;;10.65;7.93;;;;;;;;;;5054163;28;20029;-59
2022/03/15 13:36:10;;;;;;;10.25;7.75;;;;;;;;;;5055491;28;20025;-60
2022/03/15 13:38:38;;;;;;;10.18;8.20;;;;;;;;;;5055298;28;20044;-59
2022/03/15 13:41:06;;;;;;;9.68;7.30;;;;;;;;;;5055425;28;20383;-60
2022/03/15 13:43:32;;;;;;;8.60;6.20;;;;;;;;;;5055351;28;20060;-60
2022/03/15 13:46:02;;;;;;;9.02;6.78;;;;;;;;;;5053941;28;20056;-59
2022/03/15 13:48:29;;;;;;;11.77;8.20;;;;;;;;;;5055285;28;20387;-59
2022/03/15 13:51:10;;;;;;;9.40;6.28;;;;;;;;;;5053734;28;20021;-59
2022/03/15 13:53:42;;;;;;;10.73;6.95;;;;;;;;;;5055166;28;20078;-59
2022/03/15 13:56:09;;;;;;;9.07;6.63;;;;;;;;;;5053726;28;20035;-59
2022/03/15 13:58:35;;;;;;;16.33;8.35;;;;;;;;;;5054164;28;20028;-60
2022/03/15 14:01:04;;;;;;;19.77;9.55;;;;;;;;;;5054825;28;20029;-59
2022/03/15 14:03:34;;;;;;;15.50;10.43;;;;;;;;;;5054971;28;20054;-60
2022/03/15 14:06:08;;;;;;;15.93;9.50;;;;;;;;;;5054835;28;20021;-60
2022/03/15 14:08:43;;;;;;;14.40;9.65;;;;;;;;;;5054796;28;20078;-60
2022/03/15 14:11:12;;;;;;;11.38;8.43;;;;;;;;;;5054213;28;20115;-60
2022/03/15 14:13:42;;;;;;;13.30;8.00;;;;;;;;;;5054655;28;20356;-59
2022/03/15 14:16:16;;;;;;;16.88;10.35;;;;;;;;;;5053401;28;20372;-60
2022/03/15 14:18:52;;;;;;;15.20;9.93;;;;;;;;;;5054705;28;20032;-60
2022/03/15 14:21:21;;;;;;;14.23;9.75;;;;;;;;;;5054518;28;20082;-59
2022/03/15 14:23:54;;;;;;;18.02;10.63;;;;;;;;;;5053253;28;20013;-59
2022/03/15 14:26:27;;;;;;;12.68;9.52;;;;;;;;;;5054412;28;20041;-59
2022/03/15 14:28:56;;;;;;;15.45;10.13;;;;;;;;;;5053299;28;20044;-59
2022/03/15 14:31:28;;;;;;;16.50;11.02;;;;;;;;;;5054307;28;20021;-60